Bayview Gardens, Illinois
Current Conditions -  °F | °C
As of 6:54 AM on Tuesday 21 Oct 2014 (Local Time) from KPIA Reporting Station
Clear Clear  
Wind Chill: 43°   Ceiling: Unl
Heat Index: 45°   Visibility: 10mi
Dew Point: 39°   Wind: 5mph
Humidity: 80%   Direction: 20°NNE
Pressure: 30.12"   Gusts: NA
Location:  40.7043°N, 89.529°W
Report Text: KPIA 211154Z 02004KT 10SM CLR 07/04 A3012 RMK AO2 SLP199 T00720039 10094 20072 53021
Loading
Personal Weather Stations






























Interactive Weather Map
Tropical Storm Tracking
New forecast layout! Learn more

10-Day Weather Forecast

Advertisements
Track Severe Weather on mobile